Time;durP1;ratioP1;P1;durP2;ratioP2;P2;SDS_P1;SDS_P2;PMS_P1;PMS_P2;Temp;Humidity;BMP_temperature;BMP_pressure;BME280_temperature;BME280_humidity;BME280_pressure;Samples;Min_cycle;Max_cycle;Signal;HPM_P1;HPM_P2
2022/07/13 00:02:10;;;;;;;26.58;2.60;;;43.20;19.00;;;;;;5053220;28;20029;-68
2022/07/13 00:04:37;;;;;;;32.08;3.00;;;43.20;19.60;;;;;;5052483;28;20036;-68
2022/07/13 00:07:04;;;;;;;19.75;2.70;;;43.00;20.00;;;;;;5052314;28;20146;-69
2022/07/13 00:09:30;;;;;;;33.65;3.38;;;42.90;21.10;;;;;;5050672;28;20038;-66
2022/07/13 00:11:57;;;;;;;28.23;2.67;;;42.70;21.20;;;;;;5052073;28;20474;-68
2022/07/13 00:14:24;;;;;;;23.77;2.97;;;42.60;20.70;;;;;;5034274;28;20036;-67
2022/07/13 00:16:51;;;;;;;31.75;3.40;;;42.50;21.50;;;;;;5051136;28;20493;-69
2022/07/13 00:19:18;;;;;;;40.55;3.78;;;42.50;20.90;;;;;;5016539;28;20112;-66
2022/07/13 00:21:44;;;;;;;51.08;3.92;;;42.40;21.40;;;;;;5051359;28;20037;-67
2022/07/13 00:24:14;;;;;;;21.98;3.15;;;42.30;21.30;;;;;;5033636;28;20069;-65
2022/07/13 00:26:40;;;;;;;29.42;3.13;;;42.30;21.90;;;;;;5033569;28;20033;-66
2022/07/13 00:29:07;;;;;;;34.15;3.65;;;42.20;22.70;;;;;;5050207;28;20093;-66
2022/07/13 00:31:33;;;;;;;33.47;3.85;;;42.20;23.30;;;;;;5050771;28;20524;-67
2022/07/13 00:34:00;;;;;;;19.98;3.47;;;42.20;23.50;;;;;;5050996;28;20064;-67
2022/07/13 00:36:26;;;;;;;32.20;4.13;;;42.20;24.10;;;;;;5034308;28;20060;-66
2022/07/13 00:38:53;;;;;;;28.73;4.35;;;41.90;23.90;;;;;;5050838;28;20035;-67
2022/07/13 00:41:19;;;;;;;36.08;4.32;;;41.90;24.50;;;;;;5032482;28;20057;-66
2022/07/13 00:43:45;;;;;;;29.90;3.67;;;41.80;24.20;;;;;;5049388;28;20053;-67
2022/07/13 00:46:13;;;;;;;33.70;3.72;;;41.70;23.60;;;;;;5015000;28;20132;-65
2022/07/13 00:48:41;;;;;;;25.25;3.85;;;41.60;23.70;;;;;;5032226;28;20412;-66
2022/07/13 00:51:08;;;;;;;28.00;3.85;;;41.40;23.50;;;;;;5032029;28;20042;-67
2022/07/13 00:53:39;;;;;;;23.63;3.92;;;41.30;24.10;;;;;;5049901;28;20108;-68
2022/07/13 00:56:06;;;;;;;24.33;3.45;;;41.00;24.30;;;;;;5032360;28;20053;-66
2022/07/13 00:58:33;;;;;;;25.15;3.25;;;40.90;23.70;;;;;;5030907;28;20063;-65
2022/07/13 01:01:01;;;;;;;27.02;2.97;;;40.80;23.60;;;;;;5030556;28;20051;-66
2022/07/13 01:03:27;;;;;;;31.65;3.85;;;40.70;23.60;;;;;;5030955;28;20053;-66
2022/07/13 01:05:54;;;;;;;31.85;4.05;;;40.60;23.90;;;;;;5030942;28;20546;-66
2022/07/13 01:08:22;;;;;;;32.38;4.38;;;40.50;24.10;;;;;;5030337;28;20048;-66
2022/07/13 01:10:48;;;;;;;25.80;3.90;;;40.60;24.20;;;;;;5031632;28;20055;-67
2022/07/13 01:13:16;;;;;;;31.00;3.50;;;40.60;25.10;;;;;;5047820;28;20081;-69
2022/07/13 01:15:43;;;;;;;30.83;4.07;;;40.40;25.00;;;;;;5014309;28;20403;-67
2022/07/13 01:18:14;;;;;;;22.25;3.50;;;40.50;25.20;;;;;;5030678;28;20079;-66
2022/07/13 01:20:44;;;;;;;27.20;3.65;;;40.50;25.00;;;;;;5030586;28;20104;-64
2022/07/13 01:23:14;;;;;;;30.05;3.40;;;40.40;24.90;;;;;;5048032;28;20147;-65
2022/07/13 01:25:42;;;;;;;31.80;3.42;;;40.30;25.50;;;;;;5048968;28;20057;-66
2022/07/13 01:28:09;;;;;;;26.60;3.35;;;40.20;25.40;;;;;;5030861;28;20154;-69
2022/07/13 01:30:35;;;;;;;33.30;3.70;;;40.10;25.50;;;;;;5030142;28;20087;-68
2022/07/13 01:33:05;;;;;;;32.53;4.18;;;40.10;25.40;;;;;;5030240;28;20078;-69
2022/07/13 01:35:31;;;;;;;32.47;3.45;;;40.00;25.90;;;;;;5031908;28;20062;-69
2022/07/13 01:38:01;;;;;;;33.33;3.53;;;39.90;27.00;;;;;;5049689;28;20108;-74
2022/07/13 01:40:27;;;;;;;47.22;4.63;;;39.80;27.60;;;;;;5031681;28;20054;-69
2022/07/13 01:42:54;;;;;;;36.58;4.05;;;39.70;28.00;;;;;;5049566;28;20135;-68
2022/07/13 01:45:23;;;;;;;38.50;4.75;;;39.70;28.90;;;;;;5031053;28;20073;-69
2022/07/13 01:47:52;;;;;;;34.03;4.75;;;39.50;29.70;;;;;;5031686;28;20053;-68
2022/07/13 01:50:20;;;;;;;28.20;4.22;;;39.50;30.00;;;;;;5031478;28;20058;-68
2022/07/13 01:52:48;;;;;;;35.67;4.80;;;39.30;30.00;;;;;;5032053;28;20097;-72
2022/07/13 01:55:15;;;;;;;32.78;3.88;;;39.30;30.50;;;;;;5032363;28;20103;-70
2022/07/13 01:57:42;;;;;;;40.85;4.85;;;39.20;30.80;;;;;;5031230;28;20052;-71
2022/07/13 02:00:10;;;;;;;28.80;4.55;;;39.10;31.50;;;;;;5031566;28;20054;-68
2022/07/13 02:02:37;;;;;;;32.47;5.20;;;38.90;31.80;;;;;;5031586;28;20069;-67
2022/07/13 02:05:04;;;;;;;42.08;4.85;;;38.90;32.30;;;;;;5033078;28;20061;-69
2022/07/13 02:07:30;;;;;;;39.53;5.15;;;38.80;32.60;;;;;;5032693;28;20160;-69
2022/07/13 02:09:56;;;;;;;27.83;4.75;;;38.70;33.20;;;;;;5032377;28;20074;-69
2022/07/13 02:12:23;;;;;;;26.92;4.25;;;38.60;33.20;;;;;;5049631;28;20125;-71
2022/07/13 02:14:49;;;;;;;31.10;4.35;;;38.40;33.50;;;;;;5031907;28;20158;-69
2022/07/13 02:17:16;;;;;;;20.55;3.60;;;38.30;34.20;;;;;;5035855;28;20055;-70
2022/07/13 02:19:43;;;;;;;24.48;4.38;;;38.20;34.40;;;;;;5032198;28;20501;-72
2022/07/13 02:22:09;;;;;;;25.70;4.05;;;38.20;34.60;;;;;;5031118;28;20169;-69
2022/07/13 02:24:35;;;;;;;26.13;4.13;;;38.10;34.70;;;;;;5049058;28;20871;-68
2022/07/13 02:27:02;;;;;;;30.13;4.45;;;38.00;34.30;;;;;;5030230;28;20103;-70
2022/07/13 02:29:28;;;;;;;30.08;4.63;;;37.80;34.20;;;;;;5029970;28;20068;-72
2022/07/13 02:31:55;;;;;;;30.17;4.15;;;37.80;34.40;;;;;;5028551;28;20059;-70
2022/07/13 02:34:27;;;;;;;25.45;4.60;;;37.70;34.30;;;;;;5030418;28;20115;-70
2022/07/13 02:36:56;;;;;;;26.00;4.20;;;37.50;34.50;;;;;;5048169;28;20519;-70
2022/07/13 02:39:23;;;;;;;33.78;4.80;;;37.40;34.90;;;;;;5029724;28;20509;-73
2022/07/13 02:41:49;;;;;;;33.50;5.15;;;37.40;35.40;;;;;;5030338;28;20118;-69
2022/07/13 02:44:16;;;;;;;24.60;4.63;;;37.30;35.50;;;;;;5048223;28;20071;-70
2022/07/13 02:46:43;;;;;;;27.45;4.70;;;37.20;35.60;;;;;;5030686;28;20515;-72
2022/07/13 02:49:09;;;;;;;25.90;4.60;;;37.10;35.70;;;;;;5031388;28;20102;-69
2022/07/13 02:52:22;;;;;;;34.05;5.45;;;37.00;36.00;;;;;;5013712;28;20514;-72
2022/07/13 02:54:51;;;;;;;24.50;4.70;;;36.90;36.20;;;;;;5049161;28;20525;-68
2022/07/13 02:57:18;;;;;;;37.70;6.03;;;36.90;36.80;;;;;;5048988;28;20075;-73
2022/07/13 03:00:04;;;;;;;30.52;6.03;;;36.90;37.30;;;;;;5031554;28;20091;-70
2022/07/13 03:02:30;;;;;;;32.67;6.47;;;36.70;38.20;;;;;;5030211;28;20056;-70
2022/07/13 03:04:56;;;;;;;31.25;5.63;;;36.60;39.00;;;;;;5030640;28;20059;-70
2022/07/13 03:07:23;;;;;;;26.02;4.88;;;36.50;39.60;;;;;;5030966;28;20081;-68
2022/07/13 03:09:49;;;;;;;26.67;4.18;;;36.50;39.90;;;;;;5030111;28;20158;-70
2022/07/13 03:12:16;;;;;;;27.58;4.72;;;36.30;40.00;;;;;;5030452;28;20094;-69
2022/07/13 03:14:42;;;;;;;23.77;3.85;;;36.40;40.30;;;;;;5030253;28;20087;-70
2022/07/13 03:17:09;;;;;;;20.60;3.97;;;36.20;40.20;;;;;;5029790;28;20063;-69
2022/07/13 03:19:35;;;;;;;25.38;4.60;;;36.10;40.50;;;;;;5028549;28;20107;-71
2022/07/13 03:22:05;;;;;;;28.60;4.43;;;36.00;40.60;;;;;;5055152;22;20581;-70
2022/07/13 03:24:32;;;;;;;16.80;4.30;;;35.90;40.90;;;;;;5047141;28;20088;-71
2022/07/13 03:26:59;;;;;;;30.63;4.10;;;35.90;41.20;;;;;;5048927;28;20425;-70
2022/07/13 03:29:25;;;;;;;19.15;3.83;;;35.90;41.30;;;;;;5048064;28;20069;-74
2022/07/13 03:31:52;;;;;;;17.83;4.18;;;35.80;41.00;;;;;;5048769;28;20196;-73
2022/07/13 03:34:18;;;;;;;21.83;3.92;;;35.80;41.00;;;;;;5028751;28;20068;-70
2022/07/13 03:36:44;;;;;;;22.70;4.25;;;35.70;41.10;;;;;;5047748;28;20143;-70
2022/07/13 03:39:11;;;;;;;22.55;4.15;;;35.60;41.10;;;;;;5047404;28;20072;-70
2022/07/13 03:41:37;;;;;;;25.70;4.18;;;35.60;41.30;;;;;;5045878;28;20076;-69
2022/07/13 03:44:04;;;;;;;28.65;5.80;;;35.50;41.50;;;;;;5046397;28;20085;-70
2022/07/13 03:46:31;;;;;;;18.40;4.05;;;35.50;41.70;;;;;;5047385;28;20077;-72
2022/07/13 03:48:58;;;;;;;22.60;4.93;;;35.40;41.70;;;;;;5046478;28;20083;-69
2022/07/13 03:51:24;;;;;;;27.20;5.22;;;35.40;42.00;;;;;;5046352;28;20079;-70
2022/07/13 03:53:50;;;;;;;26.45;4.40;;;35.30;42.40;;;;;;5046304;28;20094;-69
2022/07/13 03:56:17;;;;;;;25.85;5.57;;;35.20;42.70;;;;;;5047413;28;20161;-68
2022/07/13 03:58:43;;;;;;;21.02;4.82;;;35.20;42.80;;;;;;5045991;28;20071;-72
2022/07/13 04:01:09;;;;;;;23.63;4.47;;;35.20;42.60;;;;;;5047831;28;20087;-70
2022/07/13 04:03:36;;;;;;;13.25;3.92;;;35.10;42.60;;;;;;5045375;28;20073;-69
2022/07/13 04:06:05;;;;;;;19.98;3.55;;;35.10;41.60;;;;;;5047798;28;20071;-71
2022/07/13 04:08:35;;;;;;;25.52;4.57;;;35.10;41.40;;;;;;5048135;28;20075;-70
2022/07/13 04:11:02;;;;;;;20.48;5.00;;;35.10;42.00;;;;;;5049659;28;20651;-71
2022/07/13 04:13:28;;;;;;;20.75;3.78;;;35.00;42.30;;;;;;5051179;28;20091;-71
2022/07/13 04:15:55;;;;;;;28.10;4.28;;;34.90;42.90;;;;;;5051847;28;20210;-72
2022/07/13 04:18:21;;;;;;;22.63;4.40;;;34.90;43.50;;;;;;5049752;28;20096;-71
2022/07/13 04:20:48;;;;;;;37.55;4.82;;;34.80;43.90;;;;;;5050667;28;20183;-70
2022/07/13 04:23:14;;;;;;;24.38;4.30;;;34.70;44.10;;;;;;5050141;28;20067;-70
2022/07/13 04:25:40;;;;;;;21.50;3.92;;;34.80;44.50;;;;;;5050256;28;20530;-69
2022/07/13 04:28:07;;;;;;;29.00;4.75;;;34.70;44.90;;;;;;5051150;28;20081;-70
2022/07/13 04:30:33;;;;;;;20.17;3.85;;;34.70;45.00;;;;;;5051326;28;20106;-73
2022/07/13 04:33:00;;;;;;;17.98;4.13;;;34.60;45.20;;;;;;5052160;28;20158;-70
2022/07/13 04:35:27;;;;;;;27.50;4.63;;;34.60;45.60;;;;;;5052051;28;20115;-69
2022/07/13 04:37:53;;;;;;;28.30;4.93;;;34.50;45.90;;;;;;5051702;28;20147;-69
2022/07/13 04:40:20;;;;;;;18.70;4.35;;;34.30;46.30;;;;;;5051510;28;20075;-66
2022/07/13 04:42:46;;;;;;;25.85;4.63;;;34.30;46.60;;;;;;5050538;28;20142;-67
2022/07/13 04:45:12;;;;;;;21.52;4.47;;;34.20;46.60;;;;;;5050227;28;20098;-68
2022/07/13 04:47:39;;;;;;;26.90;4.28;;;34.20;46.60;;;;;;5050411;28;20097;-69
2022/07/13 04:50:06;;;;;;;20.23;4.60;;;34.20;46.50;;;;;;5050455;28;20073;-68
2022/07/13 04:52:33;;;;;;;24.50;4.43;;;34.20;46.60;;;;;;5050489;28;20093;-68
2022/07/13 04:55:00;;;;;;;29.58;5.63;;;34.20;46.60;;;;;;5049768;28;20119;-70
2022/07/13 04:57:26;;;;;;;23.70;4.72;;;34.10;46.60;;;;;;5071532;22;20120;-68
2022/07/13 04:59:53;;;;;;;25.67;4.72;;;34.00;46.70;;;;;;5049869;28;20073;-70
2022/07/13 05:02:20;;;;;;;27.17;5.22;;;34.00;46.80;;;;;;5051286;28;20076;-68
2022/07/13 05:04:46;;;;;;;27.45;4.22;;;34.00;47.00;;;;;;5050802;28;20082;-70
2022/07/13 05:07:12;;;;;;;20.63;3.83;;;33.90;46.90;;;;;;5050798;28;20485;-68
2022/07/13 05:09:39;;;;;;;29.95;4.28;;;34.00;46.90;;;;;;5049110;28;20621;-67
2022/07/13 05:12:05;;;;;;;23.65;4.50;;;34.00;46.90;;;;;;5064091;28;20092;-69
2022/07/13 05:14:32;;;;;;;24.40;4.15;;;33.90;46.80;;;;;;5048850;28;20083;-69
2022/07/13 05:16:58;;;;;;;24.05;4.03;;;34.00;46.80;;;;;;5049232;28;20158;-71
2022/07/13 05:19:24;;;;;;;23.77;4.63;;;34.00;46.70;;;;;;5050581;28;20127;-69
2022/07/13 05:21:51;;;;;;;32.75;4.10;;;33.90;46.70;;;;;;5048925;28;20079;-68
2022/07/13 05:24:17;;;;;;;30.15;4.25;;;33.90;46.80;;;;;;5050030;28;20072;-67
2022/07/13 05:26:44;;;;;;;28.85;5.45;;;33.90;46.90;;;;;;5050895;28;20115;-65
2022/07/13 05:29:10;;;;;;;24.75;4.10;;;33.80;47.10;;;;;;5049826;28;20438;-67
2022/07/13 05:31:37;;;;;;;24.13;4.28;;;33.80;47.30;;;;;;5048990;28;20072;-68
2022/07/13 05:34:03;;;;;;;20.08;4.68;;;33.90;47.50;;;;;;5065060;28;20116;-67
2022/07/13 05:36:30;;;;;;;22.73;4.00;;;33.90;47.40;;;;;;5041351;28;20446;-67
2022/07/13 05:38:56;;;;;;;23.48;3.97;;;33.80;47.70;;;;;;5046908;28;20470;-68
2022/07/13 05:41:22;;;;;;;20.70;4.10;;;33.90;47.90;;;;;;5031108;28;20065;-67
2022/07/13 05:43:49;;;;;;;33.95;4.50;;;33.90;47.80;;;;;;5029426;28;20076;-66
2022/07/13 05:46:15;;;;;;;17.40;4.15;;;33.80;47.90;;;;;;5046400;28;20589;-68
2022/07/13 05:48:42;;;;;;;24.52;4.22;;;33.80;48.30;;;;;;5030317;28;20539;-67
2022/07/13 05:51:08;;;;;;;23.63;4.40;;;33.70;48.80;;;;;;5029189;28;20077;-66
2022/07/13 05:53:35;;;;;;;20.23;4.13;;;33.60;49.40;;;;;;5029145;28;20092;-67
2022/07/13 05:56:01;;;;;;;23.42;4.70;;;33.50;49.80;;;;;;5029302;28;20073;-66
2022/07/13 05:58:34;;;;;;;20.40;3.58;;;33.40;50.20;;;;;;5045639;28;20104;-68
2022/07/13 06:01:00;;;;;;;17.77;3.35;;;33.50;50.70;;;;;;5045896;28;20447;-70
2022/07/13 06:03:27;;;;;;;21.15;3.83;;;33.40;51.60;;;;;;5030600;28;20068;-66
2022/07/13 06:05:54;;;;;;;17.92;3.78;;;33.40;51.20;;;;;;5028936;28;20068;-68
2022/07/13 06:08:20;;;;;;;17.52;3.45;;;33.30;51.40;;;;;;5031217;28;20068;-68
2022/07/13 06:10:47;;;;;;;24.80;3.90;;;33.20;51.80;;;;;;5029723;28;20073;-69
2022/07/13 06:13:16;;;;;;;18.70;4.10;;;33.20;51.80;;;;;;5045958;28;20096;-68
2022/07/13 06:15:43;;;;;;;21.67;3.92;;;33.20;52.20;;;;;;5030283;28;20073;-70
2022/07/13 06:18:09;;;;;;;18.27;4.28;;;33.20;52.50;;;;;;5044507;28;20077;-66
2022/07/13 06:20:35;;;;;;;22.95;4.50;;;33.20;52.70;;;;;;5029703;28;20126;-65
2022/07/13 06:23:10;;;;;;;18.95;3.75;;;33.30;52.80;;;;;;5045591;28;20543;-66
2022/07/13 06:25:38;;;;;;;20.75;4.38;;;33.30;53.40;;;;;;5045563;28;20077;-66
2022/07/13 06:28:05;;;;;;;15.15;3.80;;;33.30;53.50;;;;;;5029491;28;20081;-67
2022/07/13 06:30:36;;;;;;;21.77;4.53;;;33.30;53.90;;;;;;5030504;28;20150;-67
2022/07/13 06:33:02;;;;;;;20.17;3.90;;;33.20;54.10;;;;;;5029904;28;20154;-69
2022/07/13 06:35:31;;;;;;;22.58;4.13;;;33.20;54.50;;;;;;5029506;28;20091;-65
2022/07/13 06:37:59;;;;;;;18.90;4.53;;;33.20;54.70;;;;;;5030118;28;20077;-66
2022/07/13 06:40:26;;;;;;;23.38;4.45;;;33.10;55.00;;;;;;5029395;28;20709;-66
2022/07/13 06:42:53;;;;;;;20.17;4.85;;;33.10;55.20;;;;;;5029821;28;20076;-66
2022/07/13 06:45:21;;;;;;;20.27;4.50;;;33.10;55.60;;;;;;5027990;28;20461;-66
2022/07/13 06:47:50;;;;;;;21.35;4.20;;;33.10;56.00;;;;;;5028237;28;20073;-67
2022/07/13 06:50:18;;;;;;;18.75;4.25;;;33.10;56.00;;;;;;5027896;28;20609;-65
2022/07/13 06:52:44;;;;;;;21.42;4.38;;;33.00;56.30;;;;;;5028851;28;20093;-64
2022/07/13 06:55:12;;;;;;;18.65;4.40;;;33.10;56.60;;;;;;5028112;28;20496;-66
2022/07/13 06:57:38;;;;;;;22.58;4.45;;;33.00;56.80;;;;;;5027694;28;20116;-68
2022/07/13 07:00:06;;;;;;;25.48;4.32;;;33.00;57.10;;;;;;5027483;28;20501;-67
2022/07/13 07:02:33;;;;;;;25.15;4.60;;;32.90;57.40;;;;;;5027451;28;20084;-66
2022/07/13 07:04:59;;;;;;;16.90;4.38;;;32.90;57.50;;;;;;5028931;28;20131;-67
2022/07/13 07:07:26;;;;;;;27.05;5.07;;;32.90;57.90;;;;;;5030187;28;20427;-65
2022/07/13 07:09:52;;;;;;;18.58;3.88;;;32.80;58.30;;;;;;5027820;28;20080;-66
2022/07/13 07:12:18;;;;;;;29.50;4.90;;;32.80;59.20;;;;;;5043753;28;20096;-66
2022/07/13 07:14:45;;;;;;;17.02;3.63;;;32.70;59.90;;;;;;5027488;28;20450;-67
2022/07/13 07:17:11;;;;;;;28.08;4.45;;;32.70;60.40;;;;;;5011158;28;20519;-66
2022/07/13 07:19:37;;;;;;;24.00;4.97;;;32.60;61.10;;;;;;5028072;28;20134;-67
2022/07/13 07:22:04;;;;;;;22.08;4.72;;;32.50;61.90;;;;;;5028585;28;20454;-66
2022/07/13 07:24:31;;;;;;;19.60;4.03;;;32.50;63.10;;;;;;5027677;28;20065;-66
2022/07/13 07:26:57;;;;;;;22.60;4.47;;;32.40;63.80;;;;;;5028941;28;20155;-66
2022/07/13 07:29:24;;;;;;;25.70;4.82;;;32.30;64.40;;;;;;5029078;28;20080;-65
2022/07/13 07:31:50;;;;;;;21.98;5.28;;;32.40;65.10;;;;;;5027305;28;20163;-68
2022/07/13 07:34:17;;;;;;;18.23;4.85;;;32.40;65.40;;;;;;5027556;28;20073;-65
2022/07/13 07:36:43;;;;;;;25.92;4.90;;;32.20;66.60;;;;;;5028064;28;20095;-65
2022/07/13 07:39:10;;;;;;;20.75;4.72;;;32.30;66.20;;;;;;5027703;28;20072;-66
2022/07/13 07:41:37;;;;;;;23.90;4.85;;;32.30;66.40;;;;;;5044073;28;20073;-67
2022/07/13 07:44:03;;;;;;;29.67;5.03;;;32.20;67.10;;;;;;5027463;28;20081;-64
2022/07/13 07:46:29;;;;;;;19.02;4.38;;;32.20;67.90;;;;;;5048019;28;20088;-66
2022/07/13 07:48:56;;;;;;;23.52;4.47;;;32.20;67.60;;;;;;5031725;28;20069;-66
2022/07/13 07:51:26;;;;;;;24.45;4.80;;;32.20;67.80;;;;;;5031279;28;20095;-68
2022/07/13 07:53:52;;;;;;;27.25;4.60;;;32.20;67.80;;;;;;5032338;28;20085;-68
2022/07/13 07:56:19;;;;;;;20.48;4.55;;;32.20;67.90;;;;;;5031375;28;20531;-67
2022/07/13 07:58:45;;;;;;;16.65;3.88;;;32.20;68.20;;;;;;5032066;28;20578;-67
2022/07/13 08:01:12;;;;;;;18.58;4.30;;;32.30;68.90;;;;;;5030951;28;20586;-70
2022/07/13 08:03:39;;;;;;;15.27;4.10;;;32.30;68.60;;;;;;5030995;28;20486;-66
2022/07/13 08:06:06;;;;;;;16.30;4.25;;;32.20;69.10;;;;;;5032112;28;20092;-67
2022/07/13 08:08:33;;;;;;;24.02;4.47;;;32.10;69.40;;;;;;5031717;28;20073;-68
2022/07/13 08:11:01;;;;;;;32.15;4.90;;;32.20;69.50;;;;;;5047945;28;20612;-67
2022/07/13 08:13:28;;;;;;;24.55;4.57;;;32.20;69.30;;;;;;5031807;28;20158;-67
2022/07/13 08:15:54;;;;;;;23.23;4.85;;;32.10;69.40;;;;;;5047652;28;20083;-65
2022/07/13 08:18:21;;;;;;;23.73;4.60;;;32.00;69.50;;;;;;5032091;28;20081;-69
2022/07/13 08:20:47;;;;;;;21.00;5.28;;;32.10;69.50;;;;;;5030371;28;20069;-66
2022/07/13 08:25:58;;;;;;;21.55;4.53;;;32.00;69.80;;;;;;5031762;28;20644;-65
2022/07/13 08:28:25;;;;;;;20.92;4.57;;;32.00;69.90;;;;;;5030306;28;20179;-65
2022/07/13 08:30:51;;;;;;;24.92;4.40;;;32.00;70.20;;;;;;5030661;28;20626;-66
2022/07/13 08:33:17;;;;;;;27.42;5.25;;;32.00;70.30;;;;;;5047169;28;20089;-67
2022/07/13 08:38:40;;;;;;;22.67;4.47;;;32.00;70.20;;;;;;5032882;28;21029;-66
2022/07/13 08:41:07;;;;;;;21.85;4.70;;;31.90;70.40;;;;;;5030589;28;20072;-67
2022/07/13 08:43:34;;;;;;;20.88;4.13;;;31.90;70.40;;;;;;5030551;28;20077;-68
2022/07/13 08:46:06;;;;;;;18.85;4.10;;;31.90;70.50;;;;;;5029026;28;20450;-67
2022/07/13 08:48:38;;;;;;;23.95;4.68;;;32.00;70.50;;;;;;5031079;28;20071;-70
2022/07/13 08:51:06;;;;;;;20.85;3.90;;;31.90;70.80;;;;;;5031346;28;20084;-67
2022/07/13 08:53:34;;;;;;;20.35;4.00;;;31.80;71.10;;;;;;5030395;28;20124;-66
2022/07/13 08:56:01;;;;;;;24.83;4.43;;;31.80;71.20;;;;;;5029902;28;20769;-66
2022/07/13 08:58:38;;;;;;;15.07;3.78;;;31.90;71.50;;;;;;5046721;28;20167;-70
2022/07/13 09:01:08;;;;;;;18.23;3.38;;;31.80;71.40;;;;;;5031310;28;20126;-68
2022/07/13 09:03:35;;;;;;;19.33;3.80;;;31.80;71.70;;;;;;5046735;28;20081;-66
2022/07/13 09:06:08;;;;;;;21.92;4.00;;;31.80;71.70;;;;;;5031670;28;20585;-67
2022/07/13 09:08:44;;;;;;;29.35;4.20;;;31.80;71.80;;;;;;5032374;28;20567;-67
2022/07/13 09:11:10;;;;;;;;;;;31.80;72.10;;;;;;5046078;28;20115;-69
2022/07/13 09:13:41;;;;;;;19.77;6.30;;;31.80;72.20;;;;;;5031403;28;19980;-69
2022/07/13 09:16:24;;;;;;;20.08;7.00;;;31.70;72.50;;;;;;5029640;28;20157;-67
2022/07/13 09:18:53;;;;;;;32.17;7.68;;;31.80;72.80;;;;;;5046569;28;20076;-66
2022/07/13 09:21:21;;;;;;;20.00;6.95;;;31.80;72.70;;;;;;5030219;28;20115;-69
2022/07/13 09:23:52;;;;;;;26.83;6.97;;;31.80;72.80;;;;;;5029398;28;20081;-70
2022/07/13 09:26:18;;;;;;;31.20;7.38;;;31.70;73.10;;;;;;5028767;28;20466;-69
2022/07/13 09:28:47;;;;;;;22.23;6.47;;;31.70;73.30;;;;;;5030600;28;20146;-69
2022/07/13 09:31:14;;;;;;;24.98;6.43;;;31.80;73.40;;;;;;5028816;28;20577;-68
2022/07/13 09:33:46;;;;;;;20.88;6.72;;;31.80;73.30;;;;;;5029441;28;20097;-69
2022/07/13 09:36:18;;;;;;;25.45;6.43;;;31.80;73.30;;;;;;5029768;28;20092;-68
2022/07/13 09:38:53;;;;;;;25.00;5.63;;;31.70;73.80;;;;;;5030336;28;20080;-67
2022/07/13 09:41:21;;;;;;;21.30;5.80;;;31.70;74.10;;;;;;5045400;28;20453;-68
2022/07/13 09:46:59;;;;;;;23.15;5.30;;;31.60;75.20;;;;;;5030384;28;20123;-68
2022/07/13 09:49:33;;;;;;;;;;;31.60;75.50;;;;;;5046693;28;20079;-69
2022/07/13 09:52:00;;;;;;;23.25;4.88;;;31.50;75.80;;;;;;5045579;28;20059;-65
2022/07/13 09:54:28;;;;;;;21.67;4.43;;;31.50;76.40;;;;;;5029609;28;20092;-70
2022/07/13 09:56:59;;;;;;;20.17;4.80;;;31.50;76.70;;;;;;5030236;28;20423;-67
2022/07/13 09:59:28;;;;;;;16.95;4.45;;;31.50;76.90;;;;;;5029406;28;20547;-68
2022/07/13 10:01:55;;;;;;;22.42;4.18;;;31.50;77.10;;;;;;5045243;28;20085;-65
2022/07/13 10:04:23;;;;;;;18.08;4.03;;;31.40;77.50;;;;;;5027999;28;20461;-69
2022/07/13 10:06:50;;;;;;;17.05;3.80;;;31.40;77.90;;;;;;5028363;28;20092;-68
2022/07/13 10:09:27;;;;;;;24.90;4.32;;;31.30;78.50;;;;;;5028135;28;20167;-67
2022/07/13 10:11:54;;;;;;;18.42;4.43;;;31.30;79.00;;;;;;5029251;28;20060;-68
2022/07/13 10:14:21;;;;;;;22.23;4.88;;;31.30;79.40;;;;;;5029682;28;20092;-66
2022/07/13 10:16:49;;;;;;;17.30;4.15;;;31.30;79.40;;;;;;5028335;28;20119;-69
2022/07/13 10:19:15;;;;;;;17.02;3.70;;;31.30;79.70;;;;;;5029520;28;20223;-66
2022/07/13 10:22:09;;;;;;;20.05;4.07;;;31.30;79.70;;;;;;5029479;28;20069;-69
2022/07/13 10:24:36;;;;;;;19.73;4.00;;;31.20;80.20;;;;;;5027131;28;20578;-68
2022/07/13 10:27:25;;;;;;;22.67;4.50;;;31.20;80.10;;;;;;5028468;28;21662;-66
2022/07/13 10:30:06;;;;;;;19.48;3.92;;;31.10;80.10;;;;;;5027279;28;20085;-66
2022/07/13 10:32:38;;;;;;;16.35;3.88;;;31.10;80.10;;;;;;5026835;28;20096;-66
2022/07/13 10:35:17;;;;;;;18.20;4.15;;;31.20;80.20;;;;;;5029504;28;20081;-67
2022/07/13 10:37:59;;;;;;;18.83;4.38;;;31.10;80.40;;;;;;5029024;28;20069;-67
2022/07/13 10:40:26;;;;;;;15.55;4.38;;;31.10;80.50;;;;;;5028387;28;20439;-67
2022/07/13 10:42:57;;;;;;;23.13;4.50;;;31.10;80.50;;;;;;5027589;28;20084;-67
2022/07/13 10:45:32;;;;;;;17.88;4.10;;;31.10;80.90;;;;;;5027393;28;20175;-67
2022/07/13 10:48:04;;;;;;;23.45;4.82;;;31.10;81.30;;;;;;5028175;28;20142;-66
2022/07/13 10:50:38;;;;;;;20.45;4.50;;;31.10;81.30;;;;;;5027792;28;20073;-66
2022/07/13 10:53:04;;;;;;;20.52;4.38;;;31.10;81.70;;;;;;5028768;28;21069;-67
2022/07/13 10:55:34;;;;;;;13.50;4.30;;;31.10;82.20;;;;;;5028835;28;20073;-67
2022/07/13 10:58:30;;;;;;;22.98;4.50;;;31.00;82.90;;;;;;5028687;28;20112;-70
2022/07/13 11:01:01;;;;;;;23.45;4.60;;;31.10;82.80;;;;;;5021186;28;20073;-67
2022/07/13 11:03:37;;;;;;;24.58;4.00;;;31.10;82.60;;;;;;5027567;28;20080;-68
2022/07/13 11:06:11;;;;;;;12.27;3.35;;;30.90;82.70;;;;;;5044607;28;20077;-67
2022/07/13 11:08:39;;;;;;;24.23;4.30;;;30.90;83.30;;;;;;5028435;28;20573;-69
2022/07/13 11:11:16;;;;;;;14.55;4.25;;;30.80;83.30;;;;;;5044227;28;20081;-68
2022/07/13 11:13:45;;;;;;;22.35;5.07;;;30.80;84.10;;;;;;5027001;28;20167;-68
2022/07/13 11:16:13;;;;;;;17.63;4.07;;;30.80;83.60;;;;;;5029078;28;20065;-66
2022/07/13 11:18:41;;;;;;;15.18;3.92;;;30.70;84.10;;;;;;5029082;28;20079;-67
2022/07/13 11:21:18;;;;;;;19.35;4.32;;;30.70;84.50;;;;;;5027474;28;20107;-68
2022/07/13 11:26:44;;;;;;;26.00;4.32;;;30.70;85.20;;;;;;5028535;28;20084;-66
2022/07/13 11:29:17;;;;;;;20.67;4.40;;;30.70;85.40;;;;;;5027057;28;20415;-68
2022/07/13 11:31:44;;;;;;;19.00;3.88;;;30.70;85.70;;;;;;5026750;28;20072;-68
2022/07/13 11:34:11;;;;;;;18.73;4.30;;;30.70;86.20;;;;;;5043533;28;20872;-67
2022/07/13 11:36:43;;;;;;;18.10;4.30;;;30.70;86.40;;;;;;5027942;28;20184;-69
2022/07/13 11:39:23;;;;;;;19.27;4.25;;;30.70;86.70;;;;;;5028366;28;20559;-68
2022/07/13 11:41:53;;;;;;;19.65;4.93;;;30.70;86.90;;;;;;5027317;28;20098;-67
2022/07/13 11:44:24;;;;;;;22.45;5.07;;;30.70;87.20;;;;;;5028059;28;20072;-68
2022/07/13 11:46:51;;;;;;;16.52;4.18;;;30.70;87.50;;;;;;5043813;28;20084;-67
2022/07/13 11:49:18;;;;;;;22.15;5.05;;;30.70;88.10;;;;;;5028856;28;20159;-67
2022/07/13 11:51:45;;;;;;;22.80;5.47;;;30.70;88.50;;;;;;5026721;28;20073;-67
2022/07/13 11:54:18;;;;;;;19.33;4.32;;;30.80;88.60;;;;;;5027471;28;20080;-67
2022/07/13 11:56:56;;;;;;;27.08;5.57;;;30.70;88.70;;;;;;5010947;28;20126;-68
2022/07/13 11:59:42;;;;;;;28.30;5.28;;;30.80;89.10;;;;;;5027246;28;20159;-68
2022/07/13 12:02:11;;;;;;;27.58;5.53;;;30.80;89.50;;;;;;5027109;28;20073;-68
2022/07/13 12:04:48;;;;;;;26.67;5.38;;;30.70;89.70;;;;;;5009670;28;20154;-69
2022/07/13 12:07:17;;;;;;;31.08;5.22;;;30.70;90.00;;;;;;5026606;28;20509;-68
2022/07/13 12:09:55;;;;;;;40.15;6.03;;;30.70;90.20;;;;;;5029489;28;20071;-68
2022/07/13 12:12:23;;;;;;;28.10;5.15;;;30.50;90.60;;;;;;5028734;28;20973;-66
2022/07/13 12:14:52;;;;;;;24.75;5.38;;;30.50;90.70;;;;;;5027473;28;20110;-67
2022/07/13 12:17:19;;;;;;;23.85;5.88;;;30.50;91.00;;;;;;5010293;28;20073;-68
2022/07/13 12:19:46;;;;;;;25.08;5.72;;;30.50;91.10;;;;;;5028495;28;20639;-68
2022/07/13 12:22:12;;;;;;;26.13;6.13;;;30.50;91.20;;;;;;5010726;28;20442;-69
2022/07/13 12:24:47;;;;;;;20.85;4.70;;;30.50;91.30;;;;;;5027165;28;20204;-67
2022/07/13 12:27:28;;;;;;;32.05;5.50;;;30.50;91.60;;;;;;5027569;28;20175;-69
2022/07/13 12:30:13;;;;;;;25.02;4.72;;;30.50;91.80;;;;;;5027345;28;20477;-67
2022/07/13 12:32:59;;;;;;;24.17;5.50;;;30.50;91.90;;;;;;5030357;28;20121;-66
2022/07/13 12:35:27;;;;;;;20.13;4.75;;;30.50;92.00;;;;;;5031821;28;20455;-65
2022/07/13 12:37:55;;;;;;;23.75;5.38;;;30.50;92.00;;;;;;5032073;28;20069;-67
2022/07/13 12:40:44;;;;;;;26.58;4.63;;;30.50;92.10;;;;;;5047808;28;20526;-66
2022/07/13 12:43:30;;;;;;;24.30;5.20;;;30.50;92.40;;;;;;5046828;28;20115;-67
2022/07/13 12:46:01;;;;;;;22.70;5.55;;;30.40;92.60;;;;;;5031386;28;20096;-67
2022/07/13 12:48:29;;;;;;;26.58;5.45;;;30.50;92.60;;;;;;5030239;28;20531;-69
2022/07/13 12:50:59;;;;;;;25.70;5.50;;;30.50;92.50;;;;;;5029621;28;20085;-67
2022/07/13 12:53:44;;;;;;;31.05;5.80;;;30.50;92.60;;;;;;5029900;28;20089;-67
2022/07/13 12:56:11;;;;;;;33.63;6.78;;;30.40;92.70;;;;;;5028418;28;20076;-68
2022/07/13 12:58:49;;;;;;;37.42;6.28;;;30.50;92.80;;;;;;5046167;28;20466;-66